createdAt,value
2023-02-09T00:00:28.293Z,-1.39
2023-02-09T00:01:28.268Z,-1.38
2023-02-09T00:02:28.299Z,-1.46
2023-02-09T00:03:28.276Z,-1.39
2023-02-09T00:04:28.214Z,-1.32
2023-02-09T00:05:28.187Z,-1.36
2023-02-09T00:06:28.172Z,-1.39
2023-02-09T00:07:28.146Z,-1.23
2023-02-09T00:08:28.130Z,-1.31
2023-02-09T00:09:28.107Z,-1.36
2023-02-09T00:10:28.089Z,-1.39
2023-02-09T00:11:28.064Z,-1.39
2023-02-09T00:12:28.049Z,-1.39
2023-02-09T00:13:28.021Z,-1.51
2023-02-09T00:14:28.025Z,-1.36
2023-02-09T00:15:28.034Z,-1.23
2023-02-09T00:16:28.024Z,-1.17
2023-02-09T00:17:27.940Z,-1.26
2023-02-09T00:18:27.921Z,-1.25
2023-02-09T00:19:27.897Z,-1.39
2023-02-09T00:20:27.884Z,-1.38
2023-02-09T00:21:27.859Z,-1.39
2023-02-09T00:22:27.839Z,-1.43
2023-02-09T00:23:27.823Z,-1.49
2023-02-09T00:24:27.799Z,-1.62
2023-02-09T00:25:27.773Z,-1.53
2023-02-09T00:26:27.755Z,-1.51
2023-02-09T00:27:27.735Z,-1.47
2023-02-09T00:28:27.806Z,-1.59
2023-02-09T00:29:27.698Z,-1.61
2023-02-09T00:30:27.675Z,-1.67
2023-02-09T00:31:27.740Z,-1.62
2023-02-09T00:32:27.639Z,-1.64
2023-02-09T00:33:27.608Z,-1.71
2023-02-09T00:34:27.588Z,-1.88
2023-02-09T00:35:27.565Z,-1.86
2023-02-09T00:36:27.604Z,-1.93
2023-02-09T00:37:27.522Z,-1.95
2023-02-09T00:38:27.505Z,-1.93
2023-02-09T00:39:27.480Z,-2.03
2023-02-09T00:40:27.463Z,-2.01
2023-02-09T00:41:27.439Z,-2.10
2023-02-09T00:42:27.424Z,-1.93
2023-02-09T00:43:27.400Z,-1.98
2023-02-09T00:44:27.387Z,-1.78
2023-02-09T00:45:27.360Z,-1.74
2023-02-09T00:46:27.345Z,-1.85
2023-02-09T00:47:27.334Z,-1.68
2023-02-09T00:48:27.304Z,-1.88
2023-02-09T00:49:27.272Z,-1.95
2023-02-09T00:50:27.253Z,-1.93
2023-02-09T00:51:27.232Z,-2.00
2023-02-09T00:52:27.216Z,-1.95
2023-02-09T00:53:27.192Z,-2.04
2023-02-09T00:54:27.176Z,-2.06
2023-02-09T00:55:27.150Z,-2.01
2023-02-09T00:56:27.136Z,-2.13
2023-02-09T00:57:27.106Z,-2.04
2023-02-09T00:58:27.088Z,-2.18
2023-02-09T00:59:27.065Z,-2.16
2023-02-09T01:00:27.046Z,-2.16
2023-02-09T01:01:27.079Z,-2.25
2023-02-09T01:02:27.007Z,-2.14
2023-02-09T01:03:27.005Z,-2.16
2023-02-09T01:04:27.002Z,-2.10
2023-02-09T01:05:26.937Z,-2.18
2023-02-09T01:06:26.920Z,-2.14
2023-02-09T01:07:26.905Z,-2.25
2023-02-09T01:08:27.079Z,-2.35
2023-02-09T01:09:26.851Z,-2.35
2023-02-09T01:10:26.838Z,-2.33
2023-02-09T01:11:26.812Z,-2.37
2023-02-09T01:12:26.800Z,-2.40
2023-02-09T01:13:26.770Z,-2.38
2023-02-09T01:14:26.756Z,-2.29
2023-02-09T01:15:26.726Z,-2.19
2023-02-09T01:16:26.774Z,-2.03
2023-02-09T01:17:26.688Z,-1.96
2023-02-09T01:18:26.669Z,-1.96
2023-02-09T01:19:26.662Z,-2.03
2023-02-09T01:20:26.625Z,-2.04
2023-02-09T01:21:26.599Z,-1.95
2023-02-09T01:22:26.582Z,-2.16
2023-02-09T01:23:26.559Z,-2.28
2023-02-09T01:24:26.545Z,-2.21
2023-02-09T01:25:26.519Z,-2.18
2023-02-09T01:26:26.515Z,-2.13
2023-02-09T01:27:26.474Z,-2.07
2023-02-09T01:28:26.544Z,-1.98
2023-02-09T01:29:26.435Z,-2.00
2023-02-09T01:30:26.464Z,-1.77
2023-02-09T01:31:26.500Z,-1.89
2023-02-09T01:32:26.375Z,-1.83
2023-02-09T01:33:26.348Z,-1.92
2023-02-09T01:34:26.331Z,-1.93
2023-02-09T01:35:26.325Z,-2.03
2023-02-09T01:36:26.291Z,-1.93
2023-02-09T01:37:26.268Z,-2.00
2023-02-09T01:38:26.454Z,-1.98
2023-02-09T01:39:26.225Z,-1.95
2023-02-09T01:40:26.207Z,-2.03
2023-02-09T01:41:26.182Z,-2.14
2023-02-09T01:42:26.176Z,-2.11
2023-02-09T01:43:26.142Z,-2.08
2023-02-09T01:44:26.124Z,-2.18
2023-02-09T01:45:26.099Z,-2.19
2023-02-09T01:46:26.148Z,-2.26
2023-02-09T01:47:26.058Z,-2.25
2023-02-09T01:48:26.055Z,-2.40
2023-02-09T01:49:26.016Z,-2.43
2023-02-09T01:50:25.999Z,-2.47
2023-02-09T01:51:25.997Z,-2.43
2023-02-09T01:52:25.959Z,-2.44
2023-02-09T01:53:25.936Z,-2.43
2023-02-09T01:54:25.921Z,-2.55
2023-02-09T01:55:25.892Z,-2.51
2023-02-09T01:56:25.875Z,-2.55
2023-02-09T01:57:25.850Z,-2.65
2023-02-09T01:58:25.829Z,-2.59
2023-02-09T01:59:25.806Z,-2.56
2023-02-09T02:00:25.997Z,-2.71
2023-02-09T02:01:25.816Z,-2.66
2023-02-09T02:02:25.803Z,-2.72
2023-02-09T02:03:25.722Z,-2.72
2023-02-09T02:04:25.709Z,-2.66
2023-02-09T02:05:25.679Z,-2.53
2023-02-09T02:06:25.666Z,-2.43
2023-02-09T02:07:25.663Z,-2.58
2023-02-09T02:08:25.619Z,-2.62
2023-02-09T02:09:25.601Z,-2.47
2023-02-09T02:10:25.578Z,-2.48
2023-02-09T02:11:25.556Z,-2.50
2023-02-09T02:14:25.489Z,-2.71
2023-02-09T02:15:25.469Z,-2.68
2023-02-09T02:16:25.447Z,-2.82
2023-02-09T02:17:25.426Z,-2.79
2023-02-09T02:18:25.407Z,-2.79
2023-02-09T02:19:25.385Z,-2.89
2023-02-09T02:20:25.374Z,-2.90
2023-02-09T02:21:25.342Z,-2.90
2023-02-09T02:22:25.318Z,-2.84
2023-02-09T02:23:25.320Z,-2.86
2023-02-09T02:24:25.273Z,-2.86
2023-02-09T02:25:25.255Z,-2.83
2023-02-09T02:26:25.238Z,-2.87
2023-02-09T02:27:25.215Z,-2.83
2023-02-09T02:28:25.254Z,-2.68
2023-02-09T02:29:25.172Z,-2.50
2023-02-09T02:30:58.528Z,-2.51
2023-02-09T02:31:25.216Z,-2.65
2023-02-09T02:32:25.110Z,-2.72
2023-02-09T02:33:25.082Z,-2.77
2023-02-09T02:34:25.068Z,-2.68
2023-02-09T02:35:25.041Z,-2.62
2023-02-09T02:36:25.032Z,-2.55
2023-02-09T02:37:24.997Z,-2.50
2023-02-09T02:38:24.980Z,-2.44
2023-02-09T02:39:24.978Z,-2.50
2023-02-09T02:40:24.937Z,-2.51
2023-02-09T02:41:24.912Z,-2.40
2023-02-09T02:42:25.096Z,-2.38
2023-02-09T02:43:24.876Z,-2.43
2023-02-09T02:44:24.854Z,-2.26
2023-02-09T02:45:24.827Z,-2.21
2023-02-09T02:46:24.861Z,-2.32
2023-02-09T02:47:24.789Z,-2.35
2023-02-09T02:48:24.770Z,-2.33
2023-02-09T02:49:24.750Z,-2.37
2023-02-09T02:50:24.779Z,-2.19
2023-02-09T02:51:24.706Z,-2.04
2023-02-09T02:52:24.688Z,-2.04
2023-02-09T02:53:24.662Z,-2.16
2023-02-09T02:54:24.650Z,-2.01
2023-02-09T02:55:24.641Z,-1.90
2023-02-09T02:56:24.614Z,-1.90
2023-02-09T02:57:24.583Z,-1.98
2023-02-09T02:59:24.542Z,-2.18
2023-02-09T03:00:24.518Z,-2.14
2023-02-09T03:01:24.534Z,-2.19
2023-02-09T03:02:24.481Z,-2.26
2023-02-09T03:03:24.461Z,-2.32
2023-02-09T03:04:24.432Z,-2.28
2023-02-09T03:05:24.471Z,-2.32
2023-02-09T03:06:24.390Z,-2.35
2023-02-09T03:08:24.354Z,-2.43
2023-02-09T03:10:24.322Z,-2.48
2023-02-09T03:11:24.321Z,-2.58
2023-02-09T03:12:24.262Z,-2.71
2023-02-09T03:13:24.246Z,-2.93
2023-02-09T03:14:24.220Z,-2.93
2023-02-09T03:15:24.203Z,-2.79
2023-02-09T03:16:24.202Z,-2.89
2023-02-09T03:17:24.159Z,-2.82
2023-02-09T03:18:24.141Z,-2.93
2023-02-09T03:19:24.118Z,-2.83
2023-02-09T03:20:24.306Z,-2.89
2023-02-09T03:21:24.078Z,-2.93
2023-02-09T03:22:24.049Z,-2.64
2023-02-09T03:23:24.035Z,-2.65
2023-02-09T03:24:24.009Z,-2.84
2023-02-09T03:25:24.019Z,-2.79
2023-02-09T03:27:23.967Z,-2.90
2023-02-09T03:28:23.974Z,-2.97
2023-02-09T03:29:23.907Z,-2.93
2023-02-09T03:30:23.916Z,-3.10
2023-02-09T03:31:23.989Z,-3.10
2023-02-09T03:32:24.043Z,-2.79
2023-02-09T03:33:23.821Z,-2.64
2023-02-09T03:34:23.805Z,-2.86
2023-02-09T03:35:23.773Z,-2.69
2023-02-09T03:37:23.749Z,-2.44
2023-02-09T03:39:23.689Z,-2.51
2023-02-09T03:40:23.670Z,-2.28
2023-02-09T03:41:23.654Z,-2.29
2023-02-09T03:43:23.625Z,-2.41
2023-02-09T03:44:23.582Z,-2.46
2023-02-09T03:45:23.564Z,-2.43
2023-02-09T03:46:23.586Z,-2.48
2023-02-09T03:47:23.529Z,-2.55
2023-02-09T03:49:23.475Z,-2.41
2023-02-09T03:50:23.460Z,-2.46
2023-02-09T03:51:23.474Z,-2.56
2023-02-09T03:52:23.421Z,-2.53
2023-02-09T03:53:23.389Z,-2.61
2023-02-09T03:55:23.349Z,-2.66
2023-02-09T03:56:23.527Z,-2.68
2023-02-09T03:57:23.306Z,-2.66
2023-02-09T03:58:23.282Z,-2.61
2023-02-09T03:59:23.283Z,-2.72
2023-02-09T04:00:23.239Z,-2.68
2023-02-09T04:01:23.221Z,-2.84
2023-02-09T04:02:23.220Z,-2.77
2023-02-09T04:04:23.154Z,-2.90
2023-02-09T04:05:23.135Z,-2.93
2023-02-09T04:07:23.293Z,-3.10
2023-02-09T04:09:23.047Z,-3.00
2023-02-09T04:11:23.626Z,-3.10
2023-02-09T04:12:22.981Z,-3.12
2023-02-09T04:13:22.962Z,-3.13
2023-02-09T04:14:23.141Z,-3.18
2023-02-09T04:15:22.939Z,-3.15
2023-02-09T04:16:23.179Z,-3.15
2023-02-09T04:17:22.877Z,-3.15
2023-02-09T04:19:22.833Z,-3.16
2023-02-09T04:20:22.825Z,-3.08
2023-02-09T04:22:22.773Z,-3.04
2023-02-09T04:23:22.748Z,-3.08
2023-02-09T04:25:22.703Z,-3.01
2023-02-09T04:28:22.711Z,-3.01
2023-02-09T04:29:22.622Z,-3.07
2023-02-09T04:30:22.805Z,-2.95
2023-02-09T04:33:22.558Z,-3.07
2023-02-09T04:34:22.518Z,-2.98
2023-02-09T04:35:22.499Z,-3.05
2023-02-09T04:36:22.480Z,-3.10
2023-02-09T04:37:22.450Z,-3.12
2023-02-09T04:39:22.411Z,-3.01
2023-02-09T04:40:22.389Z,-3.13
2023-02-09T04:41:22.374Z,-3.10
2023-02-09T04:42:22.349Z,-3.04
2023-02-09T04:43:22.326Z,-3.10
2023-02-09T04:44:22.309Z,-3.12
2023-02-09T04:45:22.284Z,-3.04
2023-02-09T04:46:22.261Z,-3.16
2023-02-09T04:47:22.241Z,-3.07
2023-02-09T04:48:22.222Z,-3.15
2023-02-09T04:49:22.225Z,-3.13
2023-02-09T04:50:22.174Z,-3.18
2023-02-09T04:51:22.155Z,-2.97
2023-02-09T04:52:22.134Z,-2.98
2023-02-09T04:53:22.139Z,-3.08
2023-02-09T04:54:22.091Z,-3.10
2023-02-09T04:55:22.086Z,-3.16
2023-02-09T04:56:22.048Z,-3.13
2023-02-09T04:57:22.027Z,-3.21
2023-02-09T04:58:22.004Z,-3.15
2023-02-09T04:59:21.987Z,-3.23
2023-02-09T05:00:21.965Z,-3.22
2023-02-09T05:01:21.981Z,-3.28
2023-02-09T05:02:21.921Z,-3.33
2023-02-09T05:03:24.563Z,-3.26
2023-02-09T05:04:21.885Z,-3.33
2023-02-09T05:05:22.283Z,-3.21
2023-02-09T05:06:21.841Z,-3.13
2023-02-09T05:07:21.813Z,-3.22
2023-02-09T05:08:21.793Z,-3.16
2023-02-09T05:09:21.773Z,-3.10
2023-02-09T05:10:21.748Z,-2.94
2023-02-09T05:12:21.712Z,-3.08
2023-02-09T05:13:21.681Z,-3.00
2023-02-09T05:14:21.672Z,-3.12
2023-02-09T05:15:21.640Z,-3.05
2023-02-09T05:16:21.733Z,-3.10
2023-02-09T05:17:21.607Z,-3.05
2023-02-09T05:18:21.578Z,-2.98
2023-02-09T05:19:21.555Z,-3.13
2023-02-09T05:20:21.747Z,-3.08
2023-02-09T05:22:21.563Z,-2.97
2023-02-09T05:23:21.471Z,-3.01
2023-02-09T05:24:21.453Z,-3.04
2023-02-09T05:25:21.435Z,-3.08
2023-02-09T05:26:21.404Z,-3.05
2023-02-09T05:27:21.442Z,-3.23
2023-02-09T05:28:21.393Z,-3.07
2023-02-09T05:29:22.275Z,-3.10
2023-02-09T05:31:21.852Z,-3.12
2023-02-09T05:33:21.259Z,-3.08
2023-02-09T05:35:21.213Z,-3.00
2023-02-09T05:36:21.193Z,-3.00
2023-02-09T05:37:21.421Z,-2.98
2023-02-09T05:38:21.172Z,-3.05
2023-02-09T05:40:21.103Z,-3.13
2023-02-09T05:41:21.090Z,-3.07
2023-02-09T05:42:21.063Z,-2.98
2023-02-09T05:43:21.048Z,-3.00
2023-02-09T05:44:21.019Z,-3.07
2023-02-09T05:46:21.043Z,-3.10
2023-02-09T05:47:20.960Z,-3.12
2023-02-09T05:48:20.936Z,-3.00
2023-02-09T05:49:20.910Z,-3.10
2023-02-09T05:52:20.854Z,-3.05
2023-02-09T05:53:20.827Z,-3.05
2023-02-09T05:54:20.833Z,-3.15
2023-02-09T05:55:20.784Z,-3.19
2023-02-09T05:56:20.761Z,-3.12
2023-02-09T05:57:20.736Z,-3.10
2023-02-09T05:58:20.923Z,-3.18
2023-02-09T05:59:20.693Z,-3.13
2023-02-09T06:00:20.683Z,-3.16
2023-02-09T06:01:20.650Z,-3.16
2023-02-09T06:02:20.690Z,-3.23
2023-02-09T06:03:20.654Z,-3.26
2023-02-09T06:04:20.795Z,-3.08
2023-02-09T06:05:20.564Z,-3.18
2023-02-09T06:10:20.686Z,-3.16
2023-02-09T06:11:20.432Z,-3.22
2023-02-09T06:14:20.572Z,-3.28
2023-02-09T06:15:20.346Z,-3.31
2023-02-09T06:16:20.531Z,-3.21
2023-02-09T06:17:20.305Z,-3.23
2023-02-09T06:20:20.241Z,-3.22
2023-02-09T06:22:20.197Z,-3.23
2023-02-09T06:23:20.178Z,-3.15
2023-02-09T06:24:20.153Z,-3.19
2023-02-09T06:25:20.358Z,-2.90
2023-02-09T06:26:20.128Z,-2.84
2023-02-09T06:28:20.075Z,-2.69
2023-02-09T06:29:20.151Z,-2.72
2023-02-09T06:30:20.181Z,-2.84
2023-02-09T06:32:20.053Z,-2.74
2023-02-09T06:33:20.168Z,-2.62
2023-02-09T06:34:19.943Z,-2.68
2023-02-09T06:36:19.901Z,-2.59
2023-02-09T06:37:19.879Z,-2.64
2023-02-09T06:38:19.857Z,-2.66
2023-02-09T06:39:19.842Z,-2.64
2023-02-09T06:40:19.816Z,-2.66
2023-02-09T06:41:19.795Z,-2.79
2023-02-09T06:42:19.838Z,-2.72
2023-02-09T06:43:19.747Z,-2.77
2023-02-09T06:44:19.732Z,-2.76
2023-02-09T06:45:19.707Z,-2.71
2023-02-09T06:46:19.752Z,-2.65
2023-02-09T06:47:19.664Z,-2.72
2023-02-09T06:48:19.646Z,-2.80
2023-02-09T06:49:19.634Z,-2.89
2023-02-09T06:50:19.658Z,-2.90
2023-02-09T06:51:19.596Z,-2.72
2023-02-09T06:52:19.562Z,-2.59
2023-02-09T06:53:19.540Z,-2.77
2023-02-09T06:54:19.515Z,-2.79
2023-02-09T06:55:19.696Z,-2.80
2023-02-09T06:56:19.474Z,-2.72
2023-02-09T06:57:19.448Z,-2.93
2023-02-09T06:58:52.679Z,-2.80
2023-02-09T06:59:19.408Z,-2.82
2023-02-09T07:00:19.852Z,-2.76
2023-02-09T07:01:19.416Z,-2.79
2023-02-09T07:02:19.370Z,-2.84
2023-02-09T07:03:19.327Z,-2.84
2023-02-09T07:04:19.523Z,-2.89
2023-02-09T07:06:19.276Z,-2.82
2023-02-09T07:07:19.240Z,-2.90
2023-02-09T07:08:19.219Z,-2.93
2023-02-09T07:09:19.194Z,-2.87
2023-02-09T07:10:19.174Z,-2.79
2023-02-09T07:11:19.152Z,-2.68
2023-02-09T07:12:19.127Z,-2.80
2023-02-09T07:13:19.108Z,-2.80
2023-02-09T07:14:19.107Z,-2.82
2023-02-09T07:15:19.200Z,-2.68
2023-02-09T07:17:19.224Z,-2.59
2023-02-09T07:18:19.013Z,-2.66
2023-02-09T07:19:18.980Z,-2.76
2023-02-09T07:21:18.937Z,-2.71
2023-02-09T07:22:18.915Z,-2.58
2023-02-09T07:24:18.874Z,-2.53
2023-02-09T07:25:18.849Z,-2.62
2023-02-09T07:26:18.828Z,-2.51
2023-02-09T07:28:18.821Z,-2.44
2023-02-09T07:29:18.767Z,-2.59
2023-02-09T07:30:18.991Z,-2.46
2023-02-09T07:31:18.903Z,-2.56
2023-02-09T07:32:18.905Z,-2.58
2023-02-09T07:33:18.682Z,-2.56
2023-02-09T07:34:18.676Z,-2.41
2023-02-09T07:35:18.640Z,-2.50
2023-02-09T07:36:18.629Z,-2.43
2023-02-09T07:37:18.821Z,-2.35
2023-02-09T07:38:18.578Z,-2.28
2023-02-09T07:39:18.553Z,-2.37
2023-02-09T07:40:18.535Z,-2.35
2023-02-09T07:41:18.527Z,-2.21
2023-02-09T07:42:18.487Z,-2.25
2023-02-09T07:43:18.467Z,-2.28
2023-02-09T07:44:18.444Z,-2.25
2023-02-09T07:45:18.428Z,-2.28
2023-02-09T07:46:18.446Z,-2.13
2023-02-09T07:47:18.398Z,-2.26
2023-02-09T07:48:18.357Z,-2.19
2023-02-09T07:49:18.338Z,-2.21
2023-02-09T07:50:20.101Z,-2.24
2023-02-09T07:51:18.297Z,-2.19
2023-02-09T07:52:18.280Z,-2.19
2023-02-09T07:53:18.258Z,-2.21
2023-02-09T07:54:18.229Z,-2.18
2023-02-09T07:55:18.212Z,-2.18
2023-02-09T07:56:18.194Z,-2.21
2023-02-09T07:57:18.170Z,-2.22
2023-02-09T07:58:18.164Z,-2.18
2023-02-09T07:59:18.133Z,-2.04
2023-02-09T08:01:18.360Z,-2.13
2023-02-09T08:02:18.091Z,-1.98
2023-02-09T08:03:18.050Z,-2.04
2023-02-09T08:04:18.024Z,-1.96
2023-02-09T08:05:18.059Z,-2.00
2023-02-09T08:06:19.479Z,-1.86
2023-02-09T08:07:17.957Z,-1.77
2023-02-09T08:08:17.944Z,-1.75
2023-02-09T08:09:17.924Z,-1.78
2023-02-09T08:10:17.898Z,-1.70
2023-02-09T08:11:17.881Z,-1.56
2023-02-09T08:12:17.924Z,-1.53
2023-02-09T08:13:17.833Z,-1.47
2023-02-09T08:14:17.816Z,-1.50
2023-02-09T08:15:17.793Z,-1.39
2023-02-09T08:16:17.803Z,-1.38
2023-02-09T08:17:17.750Z,-1.33
2023-02-09T08:18:17.757Z,-1.32
2023-02-09T08:19:17.710Z,-1.25
2023-02-09T08:20:17.720Z,-1.26
2023-02-09T08:21:17.679Z,-1.26
2023-02-09T08:22:17.649Z,-1.15
2023-02-09T08:23:17.643Z,-1.07
2023-02-09T08:24:17.612Z,-0.83
2023-02-09T08:25:17.586Z,-0.78
2023-02-09T08:26:17.569Z,-0.78
2023-02-09T08:27:17.549Z,-0.80
2023-02-09T08:28:17.612Z,-0.65
2023-02-09T08:29:17.507Z,-0.63
2023-02-09T08:30:17.494Z,-0.65
2023-02-09T08:31:17.643Z,-0.50
2023-02-09T08:32:17.491Z,-0.42
2023-02-09T08:33:17.423Z,-0.44
2023-02-09T08:34:17.426Z,-0.42
2023-02-09T08:35:17.402Z,-0.34
2023-02-09T08:37:17.344Z,-0.30
2023-02-09T08:38:17.321Z,-0.20
2023-02-09T08:39:17.307Z,-0.13
2023-02-09T08:40:17.289Z,-0.08
2023-02-09T08:41:17.269Z,0.04
2023-02-09T08:43:17.224Z,0.04
2023-02-09T08:44:17.206Z,0.16
2023-02-09T08:45:17.180Z,0.13
2023-02-09T08:46:17.312Z,0.22
2023-02-09T08:49:17.102Z,0.34
2023-02-09T08:50:17.102Z,0.40
2023-02-09T08:51:17.066Z,0.53
2023-02-09T08:52:17.045Z,0.49
2023-02-09T08:53:17.022Z,0.45
2023-02-09T08:54:17.010Z,0.62
2023-02-09T08:55:16.990Z,0.62
2023-02-09T08:56:16.978Z,0.62
2023-02-09T08:57:16.961Z,0.56
2023-02-09T08:58:16.934Z,0.74
2023-02-09T08:59:19.692Z,0.63
2023-02-09T09:00:16.901Z,0.82
2023-02-09T09:01:16.981Z,0.99
2023-02-09T09:02:16.850Z,0.88
2023-02-09T09:03:16.865Z,1.08
2023-02-09T09:04:16.843Z,1.14
2023-02-09T09:05:16.820Z,1.18
2023-02-09T09:06:16.801Z,1.13
2023-02-09T09:07:16.748Z,1.17
2023-02-09T09:08:16.735Z,1.14
2023-02-09T09:09:16.712Z,1.28
2023-02-09T09:10:16.697Z,1.42
2023-02-09T09:11:16.875Z,1.54
2023-02-09T09:12:16.657Z,1.68
2023-02-09T09:13:16.634Z,1.79
2023-02-09T09:14:16.624Z,1.74
2023-02-09T09:15:16.597Z,1.74
2023-02-09T09:16:16.647Z,1.92
2023-02-09T09:17:16.564Z,2.02
2023-02-09T09:18:16.540Z,2.07
2023-02-09T09:19:16.541Z,2.12
2023-02-09T09:20:16.504Z,2.14
2023-02-09T09:21:16.481Z,2.14
2023-02-09T09:22:16.484Z,2.32
2023-02-09T09:23:16.443Z,2.44
2023-02-09T09:24:16.429Z,2.43
2023-02-09T09:25:16.467Z,2.51
2023-02-09T09:26:16.401Z,2.63
2023-02-09T09:27:16.368Z,2.69
2023-02-09T09:28:16.417Z,2.83
2023-02-09T09:29:16.336Z,2.83
2023-02-09T09:30:16.313Z,3.01
2023-02-09T09:31:16.385Z,2.98
2023-02-09T09:32:16.419Z,3.16
2023-02-09T09:33:16.382Z,3.20
2023-02-09T09:34:16.238Z,3.31
2023-02-09T09:35:16.217Z,3.23
2023-02-09T09:36:16.200Z,3.34
2023-02-09T09:37:16.187Z,3.52
2023-02-09T09:38:16.183Z,3.42
2023-02-09T09:39:16.144Z,3.60
2023-02-09T09:40:16.132Z,3.62
2023-02-09T09:41:16.105Z,3.59
2023-02-09T09:42:16.096Z,3.45
2023-02-09T09:43:16.080Z,3.45
2023-02-09T09:44:16.060Z,3.64
2023-02-09T09:45:16.084Z,3.72
2023-02-09T09:46:16.071Z,3.67
2023-02-09T09:47:16.016Z,3.60
2023-02-09T09:48:15.979Z,3.72
2023-02-09T09:49:15.962Z,3.72
2023-02-09T09:50:15.952Z,3.74
2023-02-09T09:51:15.923Z,3.86
2023-02-09T09:52:15.907Z,3.96
2023-02-09T09:53:15.882Z,4.14
2023-02-09T09:54:15.900Z,4.16
2023-02-09T09:55:15.847Z,4.25
2023-02-09T09:56:15.848Z,4.35
2023-02-09T09:57:15.812Z,4.43
2023-02-09T09:58:15.820Z,4.50
2023-02-09T09:59:15.772Z,4.47
2023-02-09T10:00:15.778Z,4.46
2023-02-09T10:01:15.805Z,4.32
2023-02-09T10:02:15.724Z,4.39
2023-02-09T10:03:15.702Z,4.39
2023-02-09T10:04:15.780Z,4.43
2023-02-09T10:05:15.664Z,4.35
2023-02-09T10:06:15.714Z,4.54
2023-02-09T10:07:17.018Z,4.47
2023-02-09T10:08:15.620Z,4.51
2023-02-09T10:09:15.617Z,4.46
2023-02-09T10:10:15.608Z,4.42
2023-02-09T10:11:15.562Z,4.53
2023-02-09T10:12:15.547Z,4.49
2023-02-09T10:13:15.520Z,4.57
2023-02-09T10:14:15.515Z,4.51
2023-02-09T10:15:15.485Z,4.53
2023-02-09T10:16:15.471Z,4.61
2023-02-09T10:17:15.452Z,4.54
2023-02-09T10:18:15.435Z,4.74
2023-02-09T10:19:15.415Z,4.80
2023-02-09T10:20:15.400Z,4.84
2023-02-09T10:21:15.379Z,4.79
2023-02-09T10:22:15.365Z,4.71
2023-02-09T10:23:15.343Z,4.71
2023-02-09T10:24:15.330Z,4.83
2023-02-09T10:25:15.307Z,4.84
2023-02-09T10:26:15.329Z,4.88
2023-02-09T10:27:15.282Z,5.05
2023-02-09T10:28:15.331Z,5.08
2023-02-09T10:29:15.239Z,4.99
2023-02-09T10:30:15.223Z,4.90
2023-02-09T10:31:15.294Z,4.94
2023-02-09T10:32:15.236Z,5.01
2023-02-09T10:33:15.170Z,5.05
2023-02-09T10:34:15.150Z,5.06
2023-02-09T10:35:15.130Z,5.09
2023-02-09T10:36:15.116Z,5.09
2023-02-09T10:37:15.094Z,5.17
2023-02-09T10:38:15.081Z,5.17
2023-02-09T10:39:15.060Z,5.20
2023-02-09T10:40:15.046Z,5.14
2023-02-09T10:41:15.029Z,5.05
2023-02-09T10:42:15.037Z,5.05
2023-02-09T10:43:14.991Z,5.23
2023-02-09T10:44:14.978Z,5.23
2023-02-09T10:45:14.957Z,5.29
2023-02-09T10:46:14.987Z,5.30
2023-02-09T10:47:14.921Z,5.41
2023-02-09T10:48:14.908Z,5.44
2023-02-09T10:49:14.885Z,5.52
2023-02-09T10:50:14.922Z,5.55
2023-02-09T10:51:14.851Z,5.58
2023-02-09T10:52:14.839Z,5.63
2023-02-09T10:53:14.816Z,5.74
2023-02-09T10:54:14.801Z,5.75
2023-02-09T10:55:14.787Z,5.66
2023-02-09T10:56:14.769Z,5.77
2023-02-09T10:57:14.746Z,5.74
2023-02-09T10:58:14.794Z,5.67
2023-02-09T10:59:14.714Z,5.92
2023-02-09T11:00:14.699Z,5.83
2023-02-09T11:01:14.694Z,5.74
2023-02-09T11:02:14.665Z,5.70
2023-02-09T11:03:14.647Z,5.80
2023-02-09T11:04:14.695Z,5.70
2023-02-09T11:05:14.614Z,5.78
2023-02-09T11:06:14.601Z,5.83
2023-02-09T11:07:14.581Z,5.87
2023-02-09T11:08:14.570Z,5.81
2023-02-09T11:09:14.554Z,5.93
2023-02-09T11:10:14.540Z,5.98
2023-02-09T11:11:14.569Z,6.10
2023-02-09T11:13:14.486Z,6.24
2023-02-09T11:14:14.492Z,6.19
2023-02-09T11:15:14.459Z,6.21
2023-02-09T11:16:14.494Z,6.21
2023-02-09T11:17:14.434Z,6.28
2023-02-09T11:18:14.402Z,6.27
2023-02-09T11:19:14.387Z,6.36
2023-02-09T11:20:14.366Z,6.38
2023-02-09T11:21:14.352Z,6.46
2023-02-09T11:22:14.332Z,6.28
2023-02-09T11:23:14.319Z,6.27
2023-02-09T11:24:14.513Z,6.38
2023-02-09T11:25:14.285Z,6.45
2023-02-09T11:26:14.265Z,6.40
2023-02-09T11:27:14.254Z,6.43
2023-02-09T11:28:14.312Z,6.40
2023-02-09T11:29:14.219Z,6.45
2023-02-09T11:30:14.226Z,6.42
2023-02-09T11:31:14.287Z,6.48
2023-02-09T11:32:14.173Z,6.58
2023-02-09T11:33:14.152Z,6.61
2023-02-09T11:34:14.137Z,6.73
2023-02-09T11:35:14.123Z,6.72
2023-02-09T11:36:14.107Z,6.64
2023-02-09T11:38:14.070Z,6.69
2023-02-09T11:41:14.219Z,6.69
2023-02-09T11:42:14.011Z,6.63
2023-02-09T11:43:14.192Z,6.65
2023-02-09T11:44:14.177Z,6.64
2023-02-09T11:46:14.000Z,6.69
2023-02-09T11:48:13.908Z,6.64
2023-02-09T11:50:13.894Z,6.83
2023-02-09T11:51:13.859Z,6.75
2023-02-09T11:52:14.040Z,6.91
2023-02-09T11:53:13.824Z,6.96
2023-02-09T11:57:13.974Z,7.04
2023-02-09T11:58:13.946Z,6.93
2023-02-09T11:59:15.146Z,7.04
2023-02-09T12:01:16.106Z,6.96
2023-02-09T12:06:14.898Z,7.26
2023-02-09T12:09:13.773Z,7.18
2023-02-09T12:10:13.752Z,7.12
2023-02-09T12:11:13.732Z,7.18
2023-02-09T12:13:13.704Z,7.16
2023-02-09T12:14:13.687Z,7.32
2023-02-09T12:15:13.682Z,7.24
2023-02-09T12:17:13.436Z,7.26
2023-02-09T12:19:13.410Z,7.24
2023-02-09T12:20:13.386Z,7.21
2023-02-09T12:24:13.547Z,7.24
2023-02-09T12:27:13.478Z,7.45
2023-02-09T12:28:13.301Z,7.45
2023-02-09T12:29:13.455Z,7.32
2023-02-09T12:30:13.248Z,7.44
2023-02-09T12:31:13.499Z,7.29
2023-02-09T12:33:13.184Z,7.18
2023-02-09T12:34:13.163Z,7.30
2023-02-09T12:35:13.350Z,7.24
2023-02-09T12:36:13.547Z,7.24
2023-02-09T12:37:13.123Z,7.33
2023-02-09T12:38:13.105Z,7.36
2023-02-09T12:39:13.291Z,7.39
2023-02-09T12:41:13.087Z,7.52
2023-02-09T12:43:13.235Z,7.47
2023-02-09T12:44:13.203Z,7.48
2023-02-09T12:45:12.988Z,7.54
2023-02-09T12:47:12.952Z,7.73
2023-02-09T12:48:12.942Z,7.63
2023-02-09T12:49:12.920Z,7.71
2023-02-09T12:50:12.941Z,7.73
2023-02-09T12:51:12.892Z,7.74
2023-02-09T12:52:12.891Z,7.76
2023-02-09T12:53:13.058Z,7.79
2023-02-09T12:54:12.845Z,7.82
2023-02-09T12:55:12.831Z,7.82
2023-02-09T12:57:12.816Z,7.76
2023-02-09T12:58:12.780Z,7.79
2023-02-09T12:59:12.817Z,7.73
2023-02-09T13:00:12.752Z,7.81
2023-02-09T13:01:12.866Z,7.76
2023-02-09T13:02:12.716Z,7.79
2023-02-09T13:03:12.706Z,7.77
2023-02-09T13:04:12.754Z,7.77
2023-02-09T13:05:12.677Z,7.85
2023-02-09T13:06:12.658Z,7.94
2023-02-09T13:07:12.645Z,7.88
2023-02-09T13:08:12.630Z,7.91
2023-02-09T13:09:12.617Z,7.92
2023-02-09T13:10:12.651Z,7.82
2023-02-09T13:11:12.584Z,7.76
2023-02-09T13:12:12.568Z,7.82
2023-02-09T13:13:12.572Z,7.77
2023-02-09T13:14:12.535Z,7.79
2023-02-09T13:15:12.526Z,7.85
2023-02-09T13:17:12.489Z,7.88
2023-02-09T13:18:12.481Z,7.91
2023-02-09T13:19:12.457Z,7.88
2023-02-09T13:20:12.447Z,7.76
2023-02-09T13:22:12.413Z,7.79
2023-02-09T13:23:12.403Z,7.94
2023-02-09T13:25:12.371Z,7.92
2023-02-09T13:26:12.358Z,8.10
2023-02-09T13:27:12.337Z,7.96
2023-02-09T13:28:12.423Z,8.07
2023-02-09T13:29:20.541Z,8.03
2023-02-09T13:30:12.296Z,8.13
2023-02-09T13:31:12.287Z,8.06
2023-02-09T13:32:12.277Z,8.03
2023-02-09T13:33:12.254Z,8.09
2023-02-09T13:34:12.236Z,8.18
2023-02-09T13:35:12.215Z,8.13
2023-02-09T13:36:23.812Z,8.00
2023-02-09T13:38:12.170Z,7.96
2023-02-09T13:39:12.160Z,8.00
2023-02-09T13:40:12.340Z,7.92
2023-02-09T13:41:12.125Z,7.94
2023-02-09T13:42:12.106Z,7.95
2023-02-09T13:43:12.095Z,8.00
2023-02-09T13:44:12.078Z,8.06
2023-02-09T13:45:12.083Z,8.07
2023-02-09T13:46:12.107Z,8.10
2023-02-09T13:47:12.035Z,8.09
2023-02-09T13:48:13.192Z,8.07
2023-02-09T13:49:12.003Z,8.04
2023-02-09T13:50:11.986Z,7.94
2023-02-09T13:51:11.996Z,7.95
2023-02-09T13:52:11.997Z,8.10
2023-02-09T13:53:11.963Z,8.09
2023-02-09T13:54:11.940Z,8.04
2023-02-09T13:55:11.912Z,8.12
2023-02-09T13:56:11.911Z,7.94
2023-02-09T13:57:11.879Z,8.02
2023-02-09T13:58:11.863Z,7.99
2023-02-09T13:59:13.711Z,7.99
2023-02-09T14:00:11.842Z,7.99
2023-02-09T14:01:11.899Z,7.89
2023-02-09T14:02:11.802Z,7.92
2023-02-09T14:03:11.950Z,7.89
2023-02-09T14:04:11.769Z,7.89
2023-02-09T14:05:11.758Z,7.89
2023-02-09T14:06:11.739Z,7.77
2023-02-09T14:07:11.732Z,7.74
2023-02-09T14:08:11.737Z,7.74
2023-02-09T14:09:11.696Z,7.70
2023-02-09T14:10:11.677Z,7.63
2023-02-09T14:11:11.665Z,7.71
2023-02-09T14:12:11.650Z,7.69
2023-02-09T14:13:11.632Z,7.76
2023-02-09T14:14:11.616Z,7.82
2023-02-09T14:15:11.601Z,7.86
2023-02-09T14:17:24.524Z,7.74
2023-02-09T14:18:11.556Z,7.81
2023-02-09T14:19:11.536Z,7.79
2023-02-09T14:20:11.540Z,7.74
2023-02-09T14:21:11.507Z,7.88
2023-02-09T14:22:11.493Z,7.86
2023-02-09T14:23:11.473Z,7.76
2023-02-09T14:24:12.687Z,7.91
2023-02-09T14:25:11.440Z,7.88
2023-02-09T14:26:11.448Z,7.85
2023-02-09T14:27:11.411Z,7.84
2023-02-09T14:28:11.473Z,7.91
2023-02-09T14:29:11.384Z,7.81
2023-02-09T14:30:11.367Z,7.77
2023-02-09T14:31:11.430Z,7.82